createdAt,value
2017-06-27T00:00:31.296Z,0
2017-06-27T00:01:53.149Z,0
2017-06-27T00:03:15.093Z,0
2017-06-27T00:04:37.375Z,0
2017-06-27T00:05:59.175Z,0
2017-06-27T00:07:21.053Z,0
2017-06-27T00:08:42.549Z,0
2017-06-27T00:10:04.398Z,0
2017-06-27T00:11:26.363Z,0
2017-06-27T00:12:48.548Z,0
2017-06-27T00:14:10.483Z,0
2017-06-27T00:15:32.306Z,0
2017-06-27T00:16:54.141Z,0
2017-06-27T00:18:15.968Z,0
2017-06-27T00:19:37.934Z,0
2017-06-27T00:21:00.056Z,0
2017-06-27T00:22:22.210Z,0
2017-06-27T00:23:44.023Z,0
2017-06-27T00:25:06.134Z,0
2017-06-27T00:26:28.289Z,0
2017-06-27T00:27:50.550Z,0
2017-06-27T00:29:12.360Z,0
2017-06-27T00:30:34.500Z,0
2017-06-27T00:31:56.345Z,0
2017-06-27T00:33:18.512Z,0
2017-06-27T00:34:40.435Z,0
2017-06-27T00:36:02.858Z,0
2017-06-27T00:37:24.764Z,0
2017-06-27T00:38:47.332Z,0
2017-06-27T00:40:09.465Z,0
2017-06-27T00:41:31.254Z,0
2017-06-27T00:42:53.438Z,0
2017-06-27T00:44:15.725Z,0
2017-06-27T00:45:37.356Z,0
2017-06-27T00:46:59.474Z,0
2017-06-27T00:48:21.590Z,0
2017-06-27T00:49:43.425Z,0
2017-06-27T00:51:05.537Z,0
2017-06-27T00:52:27.976Z,0
2017-06-27T00:53:50.491Z,0
2017-06-27T00:55:13.263Z,0
2017-06-27T00:56:34.439Z,0
2017-06-27T00:57:56.552Z,0
2017-06-27T00:59:18.811Z,0
2017-06-27T01:00:40.970Z,0
2017-06-27T01:02:02.794Z,0
2017-06-27T01:03:25.351Z,0
2017-06-27T01:04:46.853Z,0
2017-06-27T01:06:09.684Z,0
2017-06-27T01:07:31.194Z,0
2017-06-27T01:08:53.315Z,0
2017-06-27T01:10:15.474Z,0
2017-06-27T01:11:37.544Z,0
2017-06-27T01:12:59.039Z,0
2017-06-27T01:14:21.153Z,0
2017-06-27T01:15:43.272Z,0
2017-06-27T01:17:05.593Z,0
2017-06-27T01:18:27.721Z,0
2017-06-27T01:19:49.546Z,0
2017-06-27T01:21:11.358Z,0
2017-06-27T01:22:33.840Z,0
2017-06-27T01:23:55.021Z,0
2017-06-27T01:25:16.853Z,0
2017-06-27T01:26:38.984Z,0
2017-06-27T01:28:01.762Z,0
2017-06-27T01:29:23.382Z,0
2017-06-27T01:30:45.874Z,0
2017-06-27T01:32:07.985Z,0
2017-06-27T01:33:29.834Z,0
2017-06-27T01:34:52.258Z,0
2017-06-27T01:36:14.080Z,0
2017-06-27T01:37:36.191Z,0
2017-06-27T01:38:58.974Z,0
2017-06-27T01:40:21.677Z,0
2017-06-27T01:41:44.129Z,0
2017-06-27T01:43:05.659Z,0
2017-06-27T01:44:27.769Z,0
2017-06-27T01:45:49.880Z,0
2017-06-27T01:47:11.213Z,0
2017-06-27T01:48:33.140Z,0
2017-06-27T01:49:55.937Z,0
2017-06-27T01:51:17.773Z,0
2017-06-27T01:52:39.913Z,0
2017-06-27T01:54:02.050Z,0
2017-06-27T01:55:24.209Z,0
2017-06-27T01:56:46.666Z,0
2017-06-27T01:58:08.789Z,0
2017-06-27T01:59:30.268Z,4
2017-06-27T02:00:52.373Z,4
2017-06-27T02:02:14.175Z,4
2017-06-27T02:03:35.669Z,0
2017-06-27T02:04:58.165Z,0
2017-06-27T02:06:20.224Z,4
2017-06-27T02:07:42.024Z,4
2017-06-27T02:09:03.814Z,4
2017-06-27T02:10:25.962Z,4
2017-06-27T02:11:48.120Z,4
2017-06-27T02:13:10.348Z,8
2017-06-27T02:14:31.974Z,8
2017-06-27T02:15:53.776Z,8
2017-06-27T02:17:15.895Z,8
2017-06-27T02:18:37.704Z,12
2017-06-27T02:19:59.506Z,12
2017-06-27T02:21:21.939Z,12
2017-06-27T02:22:43.777Z,12
2017-06-27T02:24:05.721Z,16
2017-06-27T02:25:27.286Z,20
2017-06-27T02:26:49.086Z,24
2017-06-27T02:28:11.461Z,28
2017-06-27T02:29:33.264Z,32
2017-06-27T02:30:55.542Z,36
2017-06-27T02:32:17.669Z,40
2017-06-27T02:33:39.923Z,48
2017-06-27T02:35:01.114Z,56
2017-06-27T02:36:22.942Z,64
2017-06-27T02:37:45.365Z,76
2017-06-27T02:39:07.551Z,84
2017-06-27T02:40:29.671Z,92
2017-06-27T02:41:51.175Z,108
2017-06-27T02:43:12.979Z,120
2017-06-27T02:44:34.846Z,140
2017-06-27T02:45:56.774Z,152
2017-06-27T02:47:18.594Z,172
2017-06-27T02:48:40.214Z,192
2017-06-27T02:50:02.324Z,216
2017-06-27T02:51:24.451Z,240
2017-06-27T02:52:46.564Z,264
2017-06-27T02:54:08.691Z,288
2017-06-27T02:55:30.797Z,320
2017-06-27T02:56:52.322Z,352
2017-06-27T02:58:14.115Z,384
2017-06-27T02:59:36.383Z,420
2017-06-27T03:00:58.191Z,460
2017-06-27T03:02:20.305Z,496
2017-06-27T03:03:42.585Z,540
2017-06-27T03:05:04.701Z,584
2017-06-27T03:06:27.014Z,632
2017-06-27T03:07:48.498Z,680
2017-06-27T03:09:10.301Z,728
2017-06-27T03:10:32.452Z,792
2017-06-27T03:11:54.614Z,860
2017-06-27T03:13:16.323Z,924
2017-06-27T03:14:37.499Z,984
2017-06-27T03:15:59.296Z,1056
2017-06-27T03:17:21.774Z,1132
2017-06-27T03:18:43.590Z,1224
2017-06-27T03:20:06.020Z,1332
2017-06-27T03:21:27.844Z,1440
2017-06-27T03:22:49.652Z,1524
2017-06-27T03:24:11.444Z,1632
2017-06-27T03:25:33.232Z,1764
2017-06-27T03:26:54.454Z,1884
2017-06-27T03:28:16.883Z,1992
2017-06-27T03:29:39.011Z,2108
2017-06-27T03:31:01.549Z,2208
2017-06-27T03:32:23.685Z,2308
2017-06-27T03:33:46.217Z,2404
2017-06-27T03:35:08.344Z,2500
2017-06-27T03:36:29.851Z,2592
2017-06-27T03:37:52.113Z,2692
2017-06-27T03:39:14.926Z,2796
2017-06-27T03:40:37.376Z,2896
2017-06-27T03:41:59.933Z,2996
2017-06-27T03:43:21.764Z,3104
2017-06-27T03:44:44.337Z,3204
2017-06-27T03:46:06.183Z,3308
2017-06-27T03:47:27.360Z,3388
2017-06-27T03:48:49.182Z,3464
2017-06-27T03:50:11.040Z,3556
2017-06-27T03:51:33.151Z,3664
2017-06-27T03:52:54.984Z,3804
2017-06-27T03:54:17.218Z,3924
2017-06-27T03:55:39.884Z,4036
2017-06-27T03:57:02.056Z,4156
2017-06-27T03:58:24.191Z,4240
2017-06-27T03:59:46.296Z,4328
2017-06-27T04:01:07.867Z,4500
2017-06-27T04:02:29.671Z,4720
2017-06-27T04:03:51.472Z,4912
2017-06-27T04:05:13.677Z,4944
2017-06-27T04:06:35.734Z,5032
2017-06-27T04:07:57.333Z,5204
2017-06-27T04:09:19.182Z,5324
2017-06-27T04:10:40.372Z,5432
2017-06-27T04:12:02.888Z,5448
2017-06-27T04:13:24.997Z,5508
2017-06-27T04:14:47.026Z,5628
2017-06-27T04:16:08.561Z,5764
2017-06-27T04:17:30.725Z,5984
2017-06-27T04:18:52.852Z,6220
2017-06-27T04:20:15.128Z,6348
2017-06-27T04:21:36.943Z,6468
2017-06-27T04:22:59.006Z,6716
2017-06-27T04:24:20.842Z,7060
2017-06-27T04:25:42.643Z,7168
2017-06-27T04:27:04.144Z,7144
2017-06-27T04:28:26.569Z,7232
2017-06-27T04:29:48.459Z,7172
2017-06-27T04:31:10.282Z,7176
2017-06-27T04:32:32.722Z,7280
2017-06-27T04:33:55.401Z,7408
2017-06-27T04:35:16.899Z,7472
2017-06-27T04:36:38.990Z,7584
2017-06-27T04:38:00.588Z,7724
2017-06-27T04:39:23.062Z,7692
2017-06-27T04:40:45.247Z,7640
2017-06-27T04:42:07.677Z,7836
2017-06-27T04:43:30.115Z,8060
2017-06-27T04:44:52.293Z,8328
2017-06-27T04:46:14.422Z,8832
2017-06-27T04:47:36.542Z,9088
2017-06-27T04:48:58.045Z,9584
2017-06-27T04:50:20.884Z,10340
2017-06-27T04:51:43.091Z,12300
2017-06-27T04:53:05.318Z,20416
2017-06-27T04:54:27.265Z,26624
2017-06-27T04:55:49.743Z,27200
2017-06-27T04:57:10.942Z,28608
2017-06-27T04:58:33.113Z,29728
2017-06-27T04:59:55.043Z,30944
2017-06-27T05:01:17.174Z,29856
2017-06-27T05:02:38.988Z,29568
2017-06-27T05:04:00.792Z,31584
2017-06-27T05:05:22.725Z,32256
2017-06-27T05:06:44.572Z,32992
2017-06-27T05:08:07.021Z,32480
2017-06-27T05:09:28.854Z,34048
2017-06-27T05:10:51.315Z,33824
2017-06-27T05:12:13.865Z,34752
2017-06-27T05:13:35.683Z,36576
2017-06-27T05:14:57.180Z,37472
2017-06-27T05:16:19.301Z,37760
2017-06-27T05:17:41.794Z,38944
2017-06-27T05:19:03.947Z,37152
2017-06-27T05:20:25.883Z,36192
2017-06-27T05:21:48.024Z,37024
2017-06-27T05:23:10.395Z,34144
2017-06-27T05:24:32.043Z,31040
2017-06-27T05:25:54.494Z,28576
2017-06-27T05:27:16.749Z,32544
2017-06-27T05:28:39.508Z,35520
2017-06-27T05:30:02.005Z,34464
2017-06-27T05:31:23.821Z,35648
2017-06-27T05:32:46.010Z,37920
2017-06-27T05:34:08.457Z,44192
2017-06-27T05:35:30.328Z,42656
2017-06-27T05:36:52.461Z,42848
2017-06-27T05:38:14.323Z,39680
2017-06-27T05:39:37.013Z,44320
2017-06-27T05:40:58.854Z,43296
2017-06-27T05:42:21.303Z,44480
2017-06-27T05:43:43.480Z,40000
2017-06-27T05:45:05.704Z,41696
2017-06-27T05:46:27.644Z,40992
2017-06-27T05:47:49.774Z,39872
2017-06-27T05:49:11.923Z,40736
2017-06-27T05:50:34.175Z,41376
2017-06-27T05:51:56.682Z,40032
2017-06-27T05:53:18.827Z,42016
2017-06-27T05:54:41.293Z,41312
2017-06-27T05:56:03.362Z,40864
2017-06-27T05:57:24.860Z,40928
2017-06-27T05:58:46.714Z,44224
2017-06-27T06:00:09.325Z,45216
2017-06-27T06:01:31.731Z,47040
2017-06-27T06:02:53.879Z,51168
2017-06-27T06:04:16.034Z,53152
2017-06-27T06:05:38.231Z,52064
2017-06-27T06:07:00.351Z,54400
2017-06-27T06:08:22.195Z,55712
2017-06-27T06:09:44.665Z,50464
2017-06-27T06:11:06.519Z,53088
2017-06-27T06:12:29.039Z,49504
2017-06-27T06:13:51.294Z,54624
2017-06-27T06:15:13.446Z,49888
2017-06-27T06:16:35.592Z,41856
2017-06-27T06:17:57.964Z,44480
2017-06-27T06:19:19.472Z,45440
2017-06-27T06:20:41.464Z,36736
2017-06-27T06:22:03.294Z,40160
2017-06-27T06:23:25.421Z,38272
2017-06-27T06:24:47.571Z,44608
2017-06-27T06:26:10.043Z,42112
2017-06-27T06:27:31.926Z,44192
2017-06-27T06:28:54.409Z,39424
2017-06-27T06:30:16.369Z,41664
2017-06-27T06:31:38.599Z,44608
2017-06-27T06:33:00.768Z,46304
2017-06-27T06:34:23.577Z,50144
2017-06-27T06:35:45.094Z,49472
2017-06-27T06:37:07.249Z,47520
2017-06-27T06:38:29.711Z,41664
2017-06-27T06:39:51.843Z,46752
2017-06-27T06:41:14.003Z,52064
2017-06-27T06:42:36.156Z,37792
2017-06-27T06:43:58.682Z,62368
2017-06-27T06:45:21.159Z,59008
2017-06-27T06:46:43.285Z,49280
2017-06-27T06:48:05.125Z,52576
2017-06-27T06:49:27.292Z,63616
2017-06-27T06:50:49.718Z,66144
2017-06-27T06:52:11.878Z,71296
2017-06-27T06:53:33.382Z,73632
2017-06-27T06:54:54.901Z,72640
2017-06-27T06:56:16.345Z,68928
2017-06-27T06:57:38.520Z,71488
2017-06-27T06:59:00.667Z,74048
2017-06-27T07:00:22.202Z,70432
2017-06-27T07:01:44.700Z,70432
2017-06-27T07:03:06.855Z,68928
2017-06-27T07:04:28.412Z,67968
2017-06-27T07:05:49.913Z,56736
2017-06-27T07:07:12.152Z,72416
2017-06-27T07:08:34.330Z,67008
2017-06-27T07:09:55.862Z,50464
2017-06-27T07:11:17.714Z,57984
2017-06-27T07:12:39.818Z,58208
2017-06-27T07:14:02.102Z,59744
2017-06-27T07:15:24.578Z,62752
2017-06-27T07:16:47.054Z,70208
2017-06-27T07:18:09.548Z,70144
2017-06-27T07:19:31.765Z,70016
2017-06-27T07:20:53.912Z,74048
2017-06-27T07:22:15.758Z,73216
2017-06-27T07:23:38.273Z,68896
2017-06-27T07:25:00.112Z,50048
2017-06-27T07:26:22.599Z,48000
2017-06-27T07:27:44.743Z,44576
2017-06-27T07:29:06.633Z,37280
2017-06-27T07:30:28.466Z,35840
2017-06-27T07:31:50.912Z,31872
2017-06-27T07:33:12.763Z,33792
2017-06-27T07:34:35.692Z,32480
2017-06-27T07:35:57.983Z,30624
2017-06-27T07:37:19.953Z,32032
2017-06-27T07:38:41.843Z,31680
2017-06-27T07:40:04.403Z,32352
2017-06-27T07:41:26.552Z,33344
2017-06-27T07:42:48.410Z,31968
2017-06-27T07:44:09.612Z,31616
2017-06-27T07:45:31.803Z,31264
2017-06-27T07:46:53.391Z,29056
2017-06-27T07:48:15.322Z,29056
2017-06-27T07:49:37.154Z,28352
2017-06-27T07:50:59.533Z,27296
2017-06-27T07:52:22.012Z,28384
2017-06-27T07:53:44.189Z,31136
2017-06-27T07:55:06.040Z,33184
2017-06-27T07:56:28.476Z,30912
2017-06-27T07:57:50.392Z,29856
2017-06-27T07:59:12.640Z,29568
2017-06-27T08:00:34.811Z,29600
2017-06-27T08:01:57.364Z,27680
2017-06-27T08:03:19.527Z,25984
2017-06-27T08:04:41.420Z,25248
2017-06-27T08:06:03.579Z,23808
2017-06-27T08:07:26.442Z,21952
2017-06-27T08:08:47.943Z,23520
2017-06-27T08:10:10.100Z,24256
2017-06-27T08:11:32.607Z,23008
2017-06-27T08:12:55.414Z,23616
2017-06-27T08:14:17.894Z,21824
2017-06-27T08:15:40.611Z,17824
2017-06-27T08:17:02.103Z,13856
2017-06-27T08:18:24.873Z,13176
2017-06-27T08:19:46.441Z,12628
2017-06-27T08:21:08.303Z,13068
2017-06-27T08:22:29.893Z,12824
2017-06-27T08:23:52.018Z,12748
2017-06-27T08:25:14.581Z,12144
2017-06-27T08:26:36.445Z,11648
2017-06-27T08:27:58.387Z,11344
2017-06-27T08:29:20.475Z,10724
2017-06-27T08:30:42.923Z,10776
2017-06-27T08:32:05.408Z,10608
2017-06-27T08:33:27.571Z,10144
2017-06-27T08:34:49.830Z,10036
2017-06-27T08:36:12.323Z,10060
2017-06-27T08:37:34.493Z,10244
2017-06-27T08:38:55.693Z,10496
2017-06-27T08:40:18.441Z,10088
2017-06-27T08:41:40.953Z,10460
2017-06-27T08:43:03.408Z,10356
2017-06-27T08:44:25.604Z,10116
2017-06-27T08:45:48.303Z,9600
2017-06-27T08:47:10.442Z,9500
2017-06-27T08:48:32.284Z,9424
2017-06-27T08:49:54.438Z,9456
2017-06-27T08:51:16.592Z,9388
2017-06-27T08:52:38.731Z,9272
2017-06-27T08:54:00.236Z,9092
2017-06-27T08:55:22.725Z,9108
2017-06-27T08:56:45.181Z,9136
2017-06-27T08:58:07.029Z,9012
2017-06-27T08:59:28.864Z,9244
2017-06-27T09:00:51.318Z,9596
2017-06-27T09:02:14.162Z,10260
2017-06-27T09:03:35.684Z,11116
2017-06-27T09:04:58.193Z,12432
2017-06-27T09:06:20.021Z,13368
2017-06-27T09:07:42.146Z,13372
2017-06-27T09:09:04.271Z,12364
2017-06-27T09:10:26.462Z,11992
2017-06-27T09:11:48.913Z,11100
2017-06-27T09:13:11.313Z,10560
2017-06-27T09:14:33.466Z,9896
2017-06-27T09:15:55.392Z,10060
2017-06-27T09:17:17.558Z,10664
2017-06-27T09:18:39.728Z,11304
2017-06-27T09:20:02.182Z,12196
2017-06-27T09:21:24.006Z,13196
2017-06-27T09:22:46.548Z,12448
2017-06-27T09:24:09.073Z,12412
2017-06-27T09:25:31.223Z,11072
2017-06-27T09:26:53.031Z,10312
2017-06-27T09:28:15.181Z,10472
2017-06-27T09:29:37.684Z,10552
2017-06-27T09:30:59.525Z,10684
2017-06-27T09:32:22.048Z,11132
2017-06-27T09:33:43.864Z,11560
2017-06-27T09:35:06.513Z,11884
2017-06-27T09:36:28.975Z,11776
2017-06-27T09:37:50.818Z,13080
2017-06-27T09:39:13.091Z,13668
2017-06-27T09:40:35.581Z,14424
2017-06-27T09:41:58.062Z,14868
2017-06-27T09:43:19.579Z,15672
2017-06-27T09:44:42.144Z,16656
2017-06-27T09:46:04.899Z,18176
2017-06-27T09:47:26.109Z,19104
2017-06-27T09:48:48.558Z,19872
2017-06-27T09:50:10.072Z,20512
2017-06-27T09:51:32.543Z,20736
2017-06-27T09:52:55.107Z,20512
2017-06-27T09:54:17.040Z,20384
2017-06-27T09:55:38.540Z,19744
2017-06-27T09:57:00.669Z,18848
2017-06-27T09:58:22.203Z,18016
2017-06-27T09:59:44.345Z,17312
2017-06-27T10:01:06.851Z,16960
2017-06-27T10:02:29.336Z,17120
2017-06-27T10:03:51.483Z,17024
2017-06-27T10:05:13.605Z,16928
2017-06-27T10:06:36.083Z,16660
2017-06-27T10:07:58.264Z,16652
2017-06-27T10:09:20.415Z,17376
2017-06-27T10:10:42.371Z,18240
2017-06-27T10:12:04.930Z,18688
2017-06-27T10:13:27.372Z,18688
2017-06-27T10:14:49.844Z,18592
2017-06-27T10:16:12.053Z,18496
2017-06-27T10:17:33.925Z,18592
2017-06-27T10:18:55.802Z,18688
2017-06-27T10:20:17.932Z,17888
2017-06-27T10:21:39.878Z,17920
2017-06-27T10:23:02.356Z,18816
2017-06-27T10:24:24.953Z,18720
2017-06-27T10:25:47.089Z,18528
2017-06-27T10:27:09.255Z,18976
2017-06-27T10:28:31.396Z,19072
2017-06-27T10:29:53.987Z,18464
2017-06-27T10:31:16.433Z,18080
2017-06-27T10:32:37.995Z,17568
2017-06-27T10:34:00.153Z,17472
2017-06-27T10:35:22.651Z,18080
2017-06-27T10:36:44.595Z,18688
2017-06-27T10:38:07.043Z,18848
2017-06-27T10:39:29.533Z,18912
2017-06-27T10:40:51.023Z,18848
2017-06-27T10:42:13.191Z,19424
2017-06-27T10:43:35.632Z,19936
2017-06-27T10:44:57.830Z,20640
2017-06-27T10:46:19.970Z,20288
2017-06-27T10:47:42.252Z,20288
2017-06-27T10:49:04.392Z,20832
2017-06-27T10:50:26.583Z,21280
2017-06-27T10:51:49.070Z,20320
2017-06-27T10:53:10.942Z,19456
2017-06-27T10:54:33.071Z,18432
2017-06-27T10:55:55.205Z,17568
2017-06-27T10:57:17.630Z,17280
2017-06-27T10:58:40.083Z,16864
2017-06-27T11:00:02.645Z,17088
2017-06-27T11:01:25.115Z,17344
2017-06-27T11:02:47.726Z,19136
2017-06-27T11:04:09.884Z,19392
2017-06-27T11:05:32.474Z,19456
2017-06-27T11:06:53.972Z,18784
2017-06-27T11:08:16.102Z,18720
2017-06-27T11:09:38.589Z,17984
2017-06-27T11:11:00.737Z,17984
2017-06-27T11:12:23.307Z,17024
2017-06-27T11:13:46.094Z,16832
2017-06-27T11:15:08.223Z,15048
2017-06-27T11:16:30.686Z,14260
2017-06-27T11:17:53.143Z,14800
2017-06-27T11:19:15.677Z,14780
2017-06-27T11:20:38.161Z,13652
2017-06-27T11:21:59.990Z,14532
2017-06-27T11:23:21.890Z,14272
2017-06-27T11:24:43.986Z,13116
2017-06-27T11:26:06.148Z,13500
2017-06-27T11:27:27.964Z,13296
2017-06-27T11:28:49.862Z,13112
2017-06-27T11:30:12.780Z,13604
2017-06-27T11:31:34.612Z,13420
2017-06-27T11:32:56.444Z,13484
2017-06-27T11:34:18.756Z,13712
2017-06-27T11:35:40.852Z,14532
2017-06-27T11:37:03.332Z,14736
2017-06-27T11:38:25.156Z,14576
2017-06-27T11:39:47.299Z,14004
2017-06-27T11:41:09.700Z,12656
2017-06-27T11:42:32.142Z,11860
2017-06-27T11:43:54.064Z,11364
2017-06-27T11:45:16.682Z,11096
2017-06-27T11:46:39.160Z,10728
2017-06-27T11:48:00.767Z,10724
2017-06-27T11:49:22.913Z,10892
2017-06-27T11:50:45.056Z,10988
2017-06-27T11:52:06.549Z,11260
2017-06-27T11:53:29.003Z,11664
2017-06-27T11:54:51.473Z,12204
2017-06-27T11:56:13.975Z,12944
2017-06-27T11:57:36.432Z,13720
2017-06-27T11:58:58.571Z,13892
2017-06-27T12:00:21.122Z,14476
2017-06-27T12:01:43.309Z,16216
2017-06-27T12:03:05.755Z,17248
2017-06-27T12:04:28.188Z,17280
2017-06-27T12:05:50.332Z,16152
2017-06-27T12:07:12.812Z,14748
2017-06-27T12:08:35.631Z,13656
2017-06-27T12:09:57.914Z,12564
2017-06-27T12:11:19.733Z,11432
2017-06-27T12:12:41.875Z,11324
2017-06-27T12:14:04.583Z,10696
2017-06-27T12:15:26.798Z,10916
2017-06-27T12:16:48.954Z,10968
2017-06-27T12:18:10.983Z,10432
2017-06-27T12:19:33.733Z,9824
2017-06-27T12:20:55.253Z,9400
2017-06-27T12:22:17.405Z,9196
2017-06-27T12:23:39.886Z,8696
2017-06-27T12:25:02.762Z,8540
2017-06-27T12:26:24.613Z,8392
2017-06-27T12:27:47.074Z,8320
2017-06-27T12:29:09.302Z,8524
2017-06-27T12:30:32.202Z,8240
2017-06-27T12:31:54.363Z,7840
2017-06-27T12:33:16.212Z,7500
2017-06-27T12:34:38.519Z,7312
2017-06-27T12:36:00.753Z,7288
2017-06-27T12:37:23.270Z,7200
2017-06-27T12:38:45.743Z,7320
2017-06-27T12:40:07.881Z,7416
2017-06-27T12:41:30.333Z,7908
2017-06-27T12:42:52.543Z,8560
2017-06-27T12:44:14.665Z,9044
2017-06-27T12:45:36.854Z,9344
2017-06-27T12:46:59.293Z,9408
2017-06-27T12:48:21.844Z,9560
2017-06-27T12:49:44.329Z,9452
2017-06-27T12:51:06.459Z,9236
2017-06-27T12:52:28.941Z,9044
2017-06-27T12:53:51.420Z,8272
2017-06-27T12:55:12.942Z,8004
2017-06-27T12:56:34.916Z,8372
2017-06-27T12:57:57.376Z,9016
2017-06-27T12:59:19.654Z,9968
2017-06-27T13:00:42.330Z,11412
2017-06-27T13:02:04.130Z,13036
2017-06-27T13:03:25.901Z,14672
2017-06-27T13:04:48.378Z,16064
2017-06-27T13:06:10.535Z,17152
2017-06-27T13:07:32.685Z,17920
2017-06-27T13:08:54.500Z,18592
2017-06-27T13:10:16.772Z,19168
2017-06-27T13:11:38.892Z,19712
2017-06-27T13:13:00.905Z,20224
2017-06-27T13:14:23.143Z,20736
2017-06-27T13:15:45.600Z,20960
2017-06-27T13:17:07.483Z,20928
2017-06-27T13:18:29.007Z,20896
2017-06-27T13:19:51.431Z,21056
2017-06-27T13:21:13.613Z,21376
2017-06-27T13:22:35.208Z,21440
2017-06-27T13:23:57.357Z,21120
2017-06-27T13:25:19.963Z,20768
2017-06-27T13:26:42.095Z,20864
2017-06-27T13:28:04.573Z,20960
2017-06-27T13:29:26.434Z,21056
2017-06-27T13:30:48.668Z,21024
2017-06-27T13:32:11.155Z,20640
2017-06-27T13:33:33.389Z,19520
2017-06-27T13:34:55.850Z,18304
2017-06-27T13:36:18.141Z,17056
2017-06-27T13:37:40.022Z,16344
2017-06-27T13:39:02.172Z,16292
2017-06-27T13:40:24.441Z,16640
2017-06-27T13:41:46.589Z,17312
2017-06-27T13:43:09.046Z,17984
2017-06-27T13:44:31.497Z,18592
2017-06-27T13:45:53.646Z,20160
2017-06-27T13:47:16.054Z,20768
2017-06-27T13:48:37.886Z,20704
2017-06-27T13:49:59.724Z,21056
2017-06-27T13:51:21.573Z,19840
2017-06-27T13:52:44.013Z,18240
2017-06-27T13:54:06.668Z,16064
2017-06-27T13:55:28.497Z,13772
2017-06-27T13:56:50.011Z,12232
2017-06-27T13:58:12.773Z,11804
2017-06-27T13:59:34.914Z,11568
2017-06-27T14:00:57.373Z,11388
2017-06-27T14:02:19.218Z,11368
2017-06-27T14:03:42.074Z,11612
2017-06-27T14:05:04.276Z,11988
2017-06-27T14:06:26.402Z,12116
2017-06-27T14:07:48.947Z,12400
2017-06-27T14:09:11.549Z,13168
2017-06-27T14:10:34.021Z,13904
2017-06-27T14:11:56.220Z,14376
2017-06-27T14:13:18.120Z,14800
2017-06-27T14:14:40.514Z,15400
2017-06-27T14:16:02.958Z,16288
2017-06-27T14:17:24.832Z,16960
2017-06-27T14:18:46.680Z,17440
2017-06-27T14:20:09.195Z,17824
2017-06-27T14:21:31.138Z,18080
2017-06-27T14:22:53.352Z,17856
2017-06-27T14:24:15.570Z,16960
2017-06-27T14:25:38.493Z,15736
2017-06-27T14:27:00.641Z,15032
2017-06-27T14:28:22.844Z,14844
2017-06-27T14:29:45.104Z,15032
2017-06-27T14:31:06.963Z,15476
2017-06-27T14:32:28.869Z,16384
2017-06-27T14:33:50.721Z,17312
2017-06-27T14:35:12.644Z,18208
2017-06-27T14:36:34.868Z,18880
2017-06-27T14:37:56.933Z,19136
2017-06-27T14:39:19.389Z,19200
2017-06-27T14:40:41.207Z,19072
2017-06-27T14:42:03.351Z,18432
2017-06-27T14:43:24.865Z,17184
2017-06-27T14:44:46.687Z,15744
2017-06-27T14:46:08.832Z,15228
2017-06-27T14:47:31.433Z,15684
2017-06-27T14:48:53.632Z,16768
2017-06-27T14:50:15.156Z,17696
2017-06-27T14:51:37.612Z,18304
2017-06-27T14:53:00.254Z,18592
2017-06-27T14:54:22.693Z,18752
2017-06-27T14:55:44.202Z,18720
2017-06-27T14:57:06.112Z,18592
2017-06-27T14:58:28.949Z,18080
2017-06-27T14:59:51.182Z,17536
2017-06-27T15:01:13.352Z,17408
2017-06-27T15:02:35.521Z,17344
2017-06-27T15:03:58.334Z,16960
2017-06-27T15:05:19.903Z,16056
2017-06-27T15:06:42.032Z,15476
2017-06-27T15:08:04.168Z,15132
2017-06-27T15:09:26.582Z,14940
2017-06-27T15:10:48.730Z,14788
2017-06-27T15:12:10.879Z,14680
2017-06-27T15:13:33.363Z,14476
2017-06-27T15:14:56.088Z,14548
2017-06-27T15:16:18.384Z,14972
2017-06-27T15:17:40.652Z,15088
2017-06-27T15:19:02.919Z,15080
2017-06-27T15:20:25.381Z,15028
2017-06-27T15:21:47.237Z,14952
2017-06-27T15:23:09.394Z,14924
2017-06-27T15:24:31.633Z,15064
2017-06-27T15:25:54.410Z,15160
2017-06-27T15:27:16.864Z,15164
2017-06-27T15:28:39.007Z,15072
2017-06-27T15:30:01.162Z,14824
2017-06-27T15:31:23.567Z,14448
2017-06-27T15:32:45.083Z,14200
2017-06-27T15:34:07.017Z,14028
2017-06-27T15:35:29.176Z,13844
2017-06-27T15:36:51.664Z,13576
2017-06-27T15:38:14.119Z,13372
2017-06-27T15:39:36.277Z,13316
2017-06-27T15:40:58.420Z,13348
2017-06-27T15:42:20.638Z,13388
2017-06-27T15:43:42.477Z,13384
2017-06-27T15:45:04.671Z,13296
2017-06-27T15:46:27.124Z,13100
2017-06-27T15:47:50.073Z,12816
2017-06-27T15:49:12.246Z,12488
2017-06-27T15:50:33.831Z,12248
2017-06-27T15:51:55.673Z,12052
2017-06-27T15:53:18.116Z,11924
2017-06-27T15:54:40.382Z,11964
2017-06-27T15:56:02.615Z,12036
2017-06-27T15:57:25.080Z,12240
2017-06-27T15:58:47.838Z,12484
2017-06-27T16:00:10.163Z,12688
2017-06-27T16:01:32.407Z,12976
2017-06-27T16:02:54.877Z,13188
2017-06-27T16:04:17.123Z,13244
2017-06-27T16:05:38.952Z,13220
2017-06-27T16:07:01.089Z,13124
2017-06-27T16:08:23.554Z,12912
2017-06-27T16:09:45.388Z,12504
2017-06-27T16:11:07.548Z,12060
2017-06-27T16:12:29.694Z,11668
2017-06-27T16:13:51.927Z,11296
2017-06-27T16:15:14.341Z,10996
2017-06-27T16:16:36.173Z,10764
2017-06-27T16:17:58.664Z,10612
2017-06-27T16:19:20.503Z,10484
2017-06-27T16:20:43.253Z,10348
2017-06-27T16:22:05.785Z,10320
2017-06-27T16:23:28.042Z,10328
2017-06-27T16:24:49.865Z,10296
2017-06-27T16:26:11.942Z,10380
2017-06-27T16:27:34.075Z,10472
2017-06-27T16:28:55.952Z,10568
2017-06-27T16:30:17.813Z,10668
2017-06-27T16:31:40.584Z,10712
2017-06-27T16:33:03.093Z,10772
2017-06-27T16:34:25.396Z,10808
2017-06-27T16:35:47.548Z,10836
2017-06-27T16:37:10.253Z,10944
2017-06-27T16:38:32.433Z,10980
2017-06-27T16:39:54.895Z,10944
2017-06-27T16:41:17.037Z,10972
2017-06-27T16:42:39.442Z,10976
2017-06-27T16:44:00.972Z,10892
2017-06-27T16:45:23.472Z,10724
2017-06-27T16:46:45.931Z,10408
2017-06-27T16:48:08.836Z,9968
2017-06-27T16:49:31.065Z,9420
2017-06-27T16:50:52.963Z,8808
2017-06-27T16:52:14.893Z,8264
2017-06-27T16:53:36.995Z,7744
2017-06-27T16:54:59.150Z,7156
2017-06-27T16:56:21.301Z,6500
2017-06-27T16:57:43.756Z,5856
2017-06-27T16:59:06.267Z,5332
2017-06-27T17:00:28.716Z,5012
2017-06-27T17:01:50.548Z,4824
2017-06-27T17:03:13.024Z,4660
2017-06-27T17:04:35.949Z,4472
2017-06-27T17:05:57.821Z,4288
2017-06-27T17:07:20.391Z,4136
2017-06-27T17:08:42.873Z,4020
2017-06-27T17:10:05.646Z,3924
2017-06-27T17:11:28.223Z,3820
2017-06-27T17:12:50.670Z,3716
2017-06-27T17:14:13.267Z,3664
2017-06-27T17:15:35.494Z,3672
2017-06-27T17:16:58.052Z,3676
2017-06-27T17:18:19.567Z,3624
2017-06-27T17:19:41.094Z,3512
2017-06-27T17:21:03.507Z,3384
2017-06-27T17:22:25.962Z,3288
2017-06-27T17:23:48.241Z,3244
2017-06-27T17:25:10.523Z,3192
2017-06-27T17:26:33.020Z,3080
2017-06-27T17:27:55.169Z,2908
2017-06-27T17:29:17.345Z,2716
2017-06-27T17:30:39.819Z,2496
2017-06-27T17:32:02.664Z,2284
2017-06-27T17:33:24.802Z,2060
2017-06-27T17:34:46.992Z,1904
2017-06-27T17:36:09.243Z,1840
2017-06-27T17:37:31.637Z,1828
2017-06-27T17:38:53.816Z,1864
2017-06-27T17:40:15.975Z,1920
2017-06-27T17:41:38.464Z,1976
2017-06-27T17:43:01.223Z,1984
2017-06-27T17:44:23.818Z,1948
2017-06-27T17:45:46.043Z,1908
2017-06-27T17:47:08.237Z,1888
2017-06-27T17:48:31.073Z,1872
2017-06-27T17:49:53.565Z,1864
2017-06-27T17:51:16.094Z,1880
2017-06-27T17:52:37.968Z,1900
2017-06-27T17:54:00.811Z,1908
2017-06-27T17:55:23.285Z,1904
2017-06-27T17:56:45.116Z,1872
2017-06-27T17:58:06.995Z,1836
2017-06-27T17:59:29.734Z,1820
2017-06-27T18:00:51.953Z,1828
2017-06-27T18:02:14.464Z,1872
2017-06-27T18:03:36.963Z,1932
2017-06-27T18:04:58.866Z,2008
2017-06-27T18:06:21.121Z,2096
2017-06-27T18:07:42.996Z,2164